This is the latest recevied weather packets stored in our database for station/object SQ5RTW-1. If no packets are shown the sender has not sent any weather packets the latest 10 day(s).
| Time | Temp. | Humidity | Pressure | Rain* | Wind** | Luminosity | Snow |
|---|---|---|---|---|---|---|---|
| 1777921397 | 22.78° C | 42% | 1013.5 hPa | - | - | - | - |
| 1777921111 | 23.33° C | 42% | 1013.4 hPa | - | - | - | - |
| 1777920442 | 21.67° C | 41% | 1013.2 hPa | - | - | - | - |
| 1777915968 | 26.67° C | 33% | 1012.6 hPa | - | - | - | - |
| 1777915950 | 26.67° C | 33% | 1012.7 hPa | - | - | - | - |
| 1777914321 | 29.44° C | 26% | 1012.6 hPa | - | - | - | - |
| 1777911618 | 34.44° C | 19% | 1012.8 hPa | - | - | - | - |
| 1777908900 | 35° C | 18% | 1013.1 hPa | - | - | - | - |
| 1777907083 | 36.11° C | 17% | 1013.3 hPa | - | - | - | - |
| 1777905629 | 36.11° C | 17% | 1013.5 hPa | - | - | - | - |
| 1777905431 | 36.67° C | 18% | 1013.4 hPa | - | - | - | - |
| 1777905418 | 36.67° C | 18% | 1013.4 hPa | - | - | - | - |
| 1777905406 | 36.67° C | 18% | 1013.4 hPa | - | - | - | - |
| 1777905393 | 36.67° C | 18% | 1013.4 hPa | - | - | - | - |
| 1777905381 | 36.67° C | 18% | 1013.4 hPa | - | - | - | - |
| 1777905198 | 37.78° C | 16% | 1013.4 hPa | - | - | - | - |
| 1777904297 | 38.89° C | 16% | 1013.7 hPa | - | - | - | - |
| 1777904256 | 36.67° C | 17% | 1013.6 hPa | - | - | - | - |
| 1777903355 | 36.11° C | 18% | 1013.7 hPa | - | - | - | - |
| 1777902454 | 34.44° C | 20% | 1013.6 hPa | - | - | - | - |
| 1777901553 | 33.89° C | 21% | 1013.6 hPa | - | - | - | - |
| 1777901536 | 35° C | 22% | 1013.6 hPa | - | - | - | - |
| 1777901511 | 33.33° C | 21% | 1013.6 hPa | - | - | - | - |
| 1777900610 | 32.22° C | 23% | 1013.8 hPa | - | - | - | - |
| 1777898809 | 33.89° C | 22% | 1014 hPa | - | - | - | - |
* Rain since midnight (hover to see other rain measurements)
** Current wind speed in m/s (hover to see current wind gust speed)